Wajima, Japan

1:56 PM JST on July 10, 2014 (GMT +0900)
Toyama (RJNT) Elev 89 ft | 36.65 °N, 137.19 °E | Change Station

Current weather conditions updated 35 minutes ago

Mostly Cloudy
Mostly Cloudy
88 °F
Feels Like 91 °F
N
23
Wind Variable Wind from SSW
Gusts 40 mph

Today is forecast to be nearly the same temperature as yesterday. Mainly cloudy and rainy.

Today
High -- | Low -- °F
--% Chance of Precip.
Yesterday
High -- | Low -- °F
Precip. -- in
4:39 AM 7:15 PM
Waxing Gibbous, 93% visible
Pressure 29.30 in
Visibility 6.2 miles
Clouds Few 2000 ft
Scattered Clouds 5000 ft
Mostly Cloudy 9000 ft
Heat Index 91 °F
Dew Point 68 °F
Humidity 52%
Rainfall 0.00 in
Snow Depth Not available.
UV 6 out of 12
Pollen Not available.
Air Quality Not available.
Flu Activity Not available.
SPECI RJNT 100421Z 20020G35KT 150V220 9999 FEW020 SCT050 BKN090 31/20 Q0992 RMK 2CU020 4CU050 6AC090 A2932

More Conditions Fewer Conditions

Pressure 29.30 in
Visibility 6.2 miles
Clouds Few 2000 ft
Scattered Clouds 5000 ft
Mostly Cloudy 9000 ft
Heat Index 91 °F
Dew Point 68 °F
Humidity 52%
Rainfall 0.00 in
Snow Depth Not available.
UV 6 out of 12
Pollen Not available.
Air Quality Not available.
Flu Activity Not available.
SPECI RJNT 100421Z 20020G35KT 150V220 9999 FEW020 SCT050 BKN090 31/20 Q0992 RMK 2CU020 4CU050 6AC090 A2932

More Conditions Fewer Conditions

10-Day Weather Forecast

Almanac

Astronomy

Jul. 10, 2014 Rise Set
Actual Time 4:39 AM JST 7:15 PM JST
Civil Twilight 4:09 AM JST 7:45 PM JST
Nautical Twilight 3:31 AM JST 8:23 PM JST
Astronomical Twilight 2:48 AM JST 9:05 PM JST
Moon 4:51 PM JST 2:15 AM JST
Length of Visible Light 15h 36m
Length of Day
14h 35m
Tomorrow will be 0m 59s shorter.
Waxing Gibbous, 93% of the Moon is Illuminated
Today
Waxing Gibbous
Jul 12
Full
Jul 18
Last Quarter
Jul 26
New
Aug 3
First Quarter

Yesterday's Extremes

Country Highs Country Lows

Community

WunderPhotos

Upload Photos

1,732,072 photos uploaded!

Nearby

Snow Depth

Not available.

Earthquake Activity

City Distance Mag. Time & Date
No recent earthquake activity has been reported nearby.
Minimum magnitude displayed is 2.5.

Coastal Water Temperatures

Place Temperature
No Stations Reporting

Nearby Weather Stations

There are no personal weather stations in this area.